Terminal Aerodrome Forecast
Issued by NWS Wichita, KS

Home | Current Version | Previous Version | Text Only | Print | Product List | Glossary Off
Versions: 1 2 3 4 5 6 7 8 9 10 11 12 13 14 15 16 17 18 19 20 21

367
FTUS43 KICT 210522
TAFICT
TAF
KICT 210522Z 2106/2206 18020G28KT P6SM BKN060
     FM210900 18017G25KT P6SM OVC015
     FM212000 21014KT 6SM SHRA VCTS BKN020CB
     FM212300 31016KT P6SM SHRA VCTS BKN035CB
     FM220000 35010KT P6SM BKN045=

USA.gov is the U.S. government's official web portal to all federal, state and local government web resources and services.